Estación Meteorológica Peña el Pijo (Robertgarden) [ 07/23/19 12:47:23 CEST ]

Fecha Hora Presion(HPa) Temp (°C) Humedad % Rocio (°C) Viento ( m/s) Direccion Lluvia 1Hora(mm) Lluvia 24H(mm) LLuvia Total(mm)
2019-Jan-08 01:01:44 1016.700 -1.9 65 -7.6         161.09
2019-Jan-08 02:02:42 1016.600 -2.2 66 -7.7         161.09
2019-Jan-08 03:02:40 1016.600 -2.7 66 -8.2         161.09
2019-Jan-08 04:02:38 1016.900 -3.2 68 -8.3         161.09
2019-Jan-08 05:04:09 1016.500 -3.1 68 -8.2         161.09
2019-Jan-08 06:01:36 1016.100 -3.6 70 -8.3         161.09
2019-Jan-08 07:01:42 1016.200 -3.8 70 -8.5         161.09
2019-Jan-08 08:01:43 1016.500 -4.1 70 -8.8         161.09
2019-Jan-08 09:01:40 1016.600 -4.1 70 -8.8         161.09
2019-Jan-08 10:01:17 1016.700 1.3 68 -4.0         161.09
2019-Jan-08 11:01:07 1016.700 7.8 46 -2.9         161.09
2019-Jan-08 12:01:42 1016.000 12.3 32 -4.0         161.09
2019-Jan-08 13:02:02 1014.800 13.9 27 -5.0         161.09
2019-Jan-08 14:01:50 1014.200 15.3 19 -8.4         161.09
2019-Jan-08 15:01:39 1013.500 15.4 19 -8.3         161.09
2019-Jan-08 16:01:52 1013.300 15.3 20 -7.5         161.09
2019-Jan-08 17:01:43 1013.200 12.3 25 -7.4         161.09
2019-Jan-08 18:01:47 1013.000 9.0 31 -7.2         161.09
2019-Jan-08 19:01:38 1013.700 4.9 38 -8.3         161.09
2019-Jan-08 20:01:53 1013.700 1.9 47 -8.3         161.09
2019-Jan-08 21:01:54 1013.700 2.4 49 -7.2         161.09
2019-Jan-08 22:01:51 1013.700 1.8 52 -7.0         161.09
2019-Jan-08 23:01:39 1013.100 1.8 53 -6.8         161.09

Temperatura Máxima:15°    Temperatura Mínima:-4°
Presión Máxima:1016.900 Hpa    Presión Mínima:1013.000 Hpa


Volver